Time;durP1;ratioP1;P1;durP2;ratioP2;P2;SDS_P1;SDS_P2;PMS_P1;PMS_P2;Temp;Humidity;BMP_temperature;BMP_pressure;BME280_temperature;BME280_humidity;BME280_pressure;Samples;Min_cycle;Max_cycle;Signal;HPM_P1;HPM_P2
2024/04/15 00:00:59;;;;;;;;;;;12.50;94.50;;;;;;5262609;26;19930;-80
2024/04/15 00:03:25;;;;;;;;;;;12.50;94.50;;;;;;5318388;26;19937;-80
2024/04/15 00:05:51;;;;;;;;;;;12.50;94.70;;;;;;5290504;26;19929;-80
2024/04/15 00:08:19;;;;;;;;;;;12.40;94.80;;;;;;5293849;26;20683;-80
2024/04/15 00:10:46;;;;;;;;;;;12.50;95.40;;;;;;5347275;26;19995;-80
2024/04/15 00:13:12;;;;;;;;;;;12.60;95.30;;;;;;5356630;26;19929;-80
2024/04/15 00:15:38;;;;;;;;;;;12.40;94.90;;;;;;5314963;26;19938;-80
2024/04/15 00:18:04;;;;;;;;;;;12.40;94.90;;;;;;5331081;26;19937;-80
2024/04/15 00:20:30;;;;;;;;;;;12.40;94.90;;;;;;5324246;26;19930;-80
2024/04/15 00:22:56;;;;;;;;;;;12.40;95.00;;;;;;5294510;26;19954;-80
2024/04/15 00:25:22;;;;;;;;;;;12.40;95.30;;;;;;5317227;26;19998;-80
2024/04/15 00:27:48;;;;;;;;;;;12.50;95.90;;;;;;5322904;26;19941;-80
2024/04/15 00:30:16;;;;;;;;;;;12.40;95.70;;;;;;5314611;26;19940;-80
2024/04/15 00:32:42;;;;;;;;;;;12.50;96.00;;;;;;5317257;26;19933;-80
2024/04/15 00:35:16;;;;;;;;;;;12.40;96.00;;;;;;5323695;26;19930;-80
2024/04/15 00:37:42;;;;;;;;;;;12.40;96.30;;;;;;5314782;26;19930;-80
2024/04/15 00:40:13;;;;;;;;;;;12.40;96.10;;;;;;5315198;26;20017;-80
2024/04/15 00:42:51;;;;;;;;;;;12.40;95.90;;;;;;5359344;26;19930;-80
2024/04/15 00:45:27;;;;;;;;;;;12.40;96.00;;;;;;5336509;26;20345;-80
2024/04/15 00:47:53;;;;;;;;;;;12.40;96.20;;;;;;5298935;26;19930;-80
2024/04/15 00:50:19;;;;;;;;;;;12.40;96.50;;;;;;5376680;26;20433;-80
2024/04/15 00:52:45;;;;;;;;;;;12.40;96.70;;;;;;5321497;26;19930;-80
2024/04/15 00:55:12;;;;;;;;;;;12.40;97.00;;;;;;5301042;26;19929;-80
2024/04/15 00:57:40;;;;;;;;;;;12.40;97.60;;;;;;5355390;26;20257;-80
2024/04/15 01:00:06;;;;;;;;;;;12.40;97.40;;;;;;5347992;26;19942;-80
2024/04/15 01:02:32;;;;;;;;;;;12.40;97.60;;;;;;5330141;26;19945;-80
2024/04/15 01:05:00;;;;;;;;;;;12.40;97.70;;;;;;5303684;26;19995;-80
2024/04/15 01:07:25;;;;;;;;;;;12.40;97.80;;;;;;5326216;26;20417;-80
2024/04/15 01:09:51;;;;;;;;;;;12.50;98.00;;;;;;5318714;26;19941;-80
2024/04/15 01:12:17;;;;;;;;;;;12.40;98.70;;;;;;5319336;26;19963;-80
2024/04/15 01:14:43;;;;;;;;;;;12.30;98.50;;;;;;5304773;26;19933;-80
2024/04/15 01:17:09;;;;;;;;;;;12.20;98.10;;;;;;5320908;26;19976;-80
2024/04/15 01:19:35;;;;;;;;;;;12.20;98.50;;;;;;5324531;26;19930;-80
2024/04/15 01:22:01;;;;;;;;;;;12.20;99.20;;;;;;5353652;26;19930;-80
2024/04/15 01:24:28;;;;;;;;;;;12.10;99.50;;;;;;5302599;26;20246;-80
2024/04/15 01:26:54;;;;;;;;;;;12.10;99.90;;;;;;5327587;26;19930;-80
2024/04/15 01:29:20;;;;;;;;;;;12.10;99.90;;;;;;5295773;26;20145;-80
2024/04/15 01:31:48;;;;;;;;;;;12.00;99.90;;;;;;5334395;26;19937;-81
2024/04/15 01:34:16;;;;;;;;;;;11.90;99.90;;;;;;5301689;26;19934;-81
2024/04/15 01:36:42;;;;;;;;;;;11.70;99.90;;;;;;5298989;26;19967;-81
2024/04/15 01:39:08;;;;;;;;;;;11.60;99.90;;;;;;5325761;26;19951;-81
2024/04/15 01:41:34;;;;;;;;;;;11.70;99.90;;;;;;5295781;26;19930;-81
2024/04/15 01:44:00;;;;;;;;;;;11.60;99.90;;;;;;5275430;26;20309;-81
2024/04/15 01:46:25;;;;;;;;;;;11.60;99.90;;;;;;5316196;26;19941;-81
2024/04/15 01:48:51;;;;;;;;;;;11.60;99.90;;;;;;5322507;26;19930;-81
2024/04/15 01:51:17;;;;;;;;;;;11.60;99.90;;;;;;5323812;26;19930;-80
2024/04/15 01:53:43;;;;;;;;;;;11.50;99.90;;;;;;5296800;26;19969;-80
2024/04/15 01:56:09;;;;;;;;;;;11.50;99.90;;;;;;5334825;26;20253;-80
2024/04/15 01:58:35;;;;;;;;;;;11.50;99.90;;;;;;5301482;26;19929;-80
2024/04/15 02:01:02;;;;;;;;;;;11.50;99.90;;;;;;5352861;26;20346;-80
2024/04/15 02:03:31;;;;;;;;;;;11.60;99.90;;;;;;5318122;26;20246;-80
2024/04/15 02:05:56;;;;;;;;;;;11.40;99.90;;;;;;5351663;26;19930;-80
2024/04/15 02:08:22;;;;;;;;;;;11.50;99.90;;;;;;5322018;26;20258;-80
2024/04/15 02:10:48;;;;;;;;;;;11.40;99.90;;;;;;5327756;26;19930;-80
2024/04/15 02:13:14;;;;;;;;;;;11.40;99.90;;;;;;5275950;26;19929;-80
2024/04/15 02:15:43;;;;;;;;;;;11.40;99.90;;;;;;5313679;26;19930;-80
2024/04/15 02:18:08;;;;;;;;;;;11.40;99.90;;;;;;5323153;26;19930;-80
2024/04/15 02:20:34;;;;;;;;;;;11.40;99.90;;;;;;5322553;26;19997;-80
2024/04/15 02:23:00;;;;;;;;;;;11.40;99.90;;;;;;5371821;26;19973;-80
2024/04/15 02:25:28;;;;;;;;;;;11.50;99.90;;;;;;5322541;26;19937;-80
2024/04/15 02:27:54;;;;;;;;;;;11.40;99.90;;;;;;5334715;26;19934;-80
2024/04/15 02:30:19;;;;;;;;;;;11.40;99.90;;;;;;5351171;26;20491;-80
2024/04/15 02:32:46;;;;;;;;;;;11.30;99.90;;;;;;5282076;26;19937;-79
2024/04/15 02:35:11;;;;;;;;;;;11.30;99.90;;;;;;5322360;26;20253;-80
2024/04/15 02:37:37;;;;;;;;;;;11.10;99.90;;;;;;5309479;26;19930;-80
2024/04/15 02:40:04;;;;;;;;;;;11.00;99.90;;;;;;5325273;26;19934;-80
2024/04/15 02:42:30;;;;;;;;;;;10.90;99.90;;;;;;5322749;26;19930;-80
2024/04/15 02:44:56;;;;;;;;;;;10.70;99.90;;;;;;5296844;26;20568;-80
2024/04/15 02:47:22;;;;;;;;;;;10.60;99.90;;;;;;5318617;26;20354;-80
2024/04/15 02:49:48;;;;;;;;;;;10.70;99.90;;;;;;5317829;26;19930;-80
2024/04/15 02:52:15;;;;;;;;;;;10.60;99.90;;;;;;5302947;26;19946;-80
2024/04/15 02:54:41;;;;;;;;;;;10.50;99.90;;;;;;5323301;26;19937;-80
2024/04/15 02:57:07;;;;;;;;;;;10.50;99.90;;;;;;5299144;26;19942;-80
2024/04/15 02:59:33;;;;;;;;;;;10.60;99.90;;;;;;5299016;26;19936;-80
2024/04/15 03:01:58;;;;;;;;;;;10.60;99.90;;;;;;5326294;26;19936;-80
2024/04/15 03:04:24;;;;;;;;;;;10.60;99.90;;;;;;5297447;26;19937;-80
2024/04/15 03:06:53;;;;;;;;;;;10.60;99.90;;;;;;5297241;26;19936;-80
2024/04/15 03:09:21;;;;;;;;;;;10.60;99.90;;;;;;5311957;26;19930;-80
2024/04/15 03:11:47;;;;;;;;;;;10.70;99.90;;;;;;5392601;26;19929;-80
2024/04/15 03:14:13;;;;;;;;;;;10.70;99.90;;;;;;5319017;26;19997;-80
2024/04/15 03:16:38;;;;;;;;;;;10.50;99.90;;;;;;5325190;26;19930;-80
2024/04/15 03:19:04;;;;;;;;;;;10.50;99.90;;;;;;5287293;26;19941;-80
2024/04/15 03:21:30;;;;;;;;;;;10.40;99.90;;;;;;5281200;26;19930;-80
2024/04/15 03:23:55;;;;;;;;;;;10.30;99.90;;;;;;5265574;26;19937;-80
2024/04/15 03:26:21;;;;;;;;;;;10.20;99.90;;;;;;5297289;26;19953;-80
2024/04/15 03:28:47;;;;;;;;;;;10.20;99.90;;;;;;5321041;26;19941;-80
2024/04/15 03:31:12;;;;;;;;;;;10.20;99.90;;;;;;5310735;26;19930;-80
2024/04/15 03:33:41;;;;;;;;;;;10.40;99.90;;;;;;5321043;26;19930;-80
2024/04/15 03:36:07;;;;;;;;;;;10.30;99.90;;;;;;5295242;26;19962;-80
2024/04/15 03:38:33;;;;;;;;;;;10.20;99.90;;;;;;5292081;26;19937;-80
2024/04/15 03:40:58;;;;;;;;;;;10.10;99.90;;;;;;5269455;26;19981;-79
2024/04/15 03:43:24;;;;;;;;;;;10.00;99.90;;;;;;5324102;26;20026;-80
2024/04/15 03:45:50;;;;;;;;;;;9.90;99.90;;;;;;5294668;26;19930;-80
2024/04/15 03:48:15;;;;;;;;;;;9.90;99.90;;;;;;5268510;26;19938;-80
2024/04/15 03:50:41;;;;;;;;;;;9.90;99.90;;;;;;5300538;26;20331;-80
2024/04/15 03:53:07;;;;;;;;;;;10.00;99.90;;;;;;5295718;26;19930;-80
2024/04/15 03:55:32;;;;;;;;;;;9.90;99.90;;;;;;5349044;26;20321;-80
2024/04/15 03:57:58;;;;;;;;;;;10.10;99.90;;;;;;5354744;26;19930;-80
2024/04/15 04:00:24;;;;;;;;;;;10.00;99.90;;;;;;5319894;26;19930;-80
2024/04/15 04:02:50;;;;;;;;;;;10.10;99.90;;;;;;5295697;27;19923;-80
2024/04/15 04:05:15;;;;;;;;;;;10.00;99.90;;;;;;5293798;26;19938;-80
2024/04/15 04:07:41;;;;;;;;;;;10.00;99.90;;;;;;5326769;26;20358;-80
2024/04/15 04:10:07;;;;;;;;;;;10.10;99.90;;;;;;5317518;27;19938;-80
2024/04/15 04:12:33;;;;;;;;;;;10.00;99.90;;;;;;5288625;26;19957;-80
2024/04/15 04:14:58;;;;;;;;;;;10.10;99.90;;;;;;5287046;26;19930;-80
2024/04/15 04:17:24;;;;;;;;;;;10.20;99.90;;;;;;5314880;26;19943;-80
2024/04/15 04:19:50;;;;;;;;;;;10.20;99.90;;;;;;5303399;26;19996;-79
2024/04/15 04:22:16;;;;;;;;;;;10.30;99.90;;;;;;5285489;27;19931;-79
2024/04/15 04:24:42;;;;;;;;;;;10.20;99.90;;;;;;5314218;27;19954;-79
2024/04/15 04:27:10;;;;;;;;;;;10.50;99.90;;;;;;5318643;26;19977;-79
2024/04/15 04:29:36;;;;;;;;;;;10.50;99.90;;;;;;5320631;26;19930;-79
2024/04/15 04:32:02;;;;;;;;;;;10.50;99.90;;;;;;5315475;27;19938;-79
2024/04/15 04:34:28;;;;;;;;;;;10.60;99.90;;;;;;5314179;26;19938;-79
2024/04/15 04:36:58;;;;;;;;;;;10.50;99.90;;;;;;5324351;26;19941;-79
2024/04/15 04:39:24;;;;;;;;;;;10.60;99.90;;;;;;5313456;27;19930;-79
2024/04/15 04:41:50;;;;;;;;;;;10.40;99.90;;;;;;5301230;27;19937;-80
2024/04/15 04:44:16;;;;;;;;;;;10.50;99.90;;;;;;5287110;27;19930;-79
2024/04/15 04:46:43;;;;;;;;;;;10.50;99.90;;;;;;5299885;27;19938;-79
2024/04/15 04:49:12;;;;;;;;;;;10.40;99.90;;;;;;5289884;27;19941;-79
2024/04/15 04:51:38;;;;;;;;;;;10.50;99.90;;;;;;5308449;26;19931;-80
2024/04/15 04:54:04;;;;;;;;;;;10.50;99.90;;;;;;5307434;27;19937;-79
2024/04/15 04:56:30;;;;;;;;;;;10.50;99.90;;;;;;5274038;27;19935;-79
2024/04/15 04:58:57;;;;;;;;;;;10.50;99.90;;;;;;5284484;27;19945;-80
2024/04/15 05:01:25;;;;;;;;;;;10.40;99.90;;;;;;5303857;26;19938;-80
2024/04/15 05:03:51;;;;;;;;;;;10.40;99.90;;;;;;5256571;27;19931;-79
2024/04/15 05:06:17;;;;;;;;;;;10.40;99.90;;;;;;5312818;27;19931;-80
2024/04/15 05:08:43;;;;;;;;;;;10.40;99.90;;;;;;5257399;27;20251;-80
2024/04/15 05:11:09;;;;;;;;;;;10.30;99.90;;;;;;5244763;27;19963;-80
2024/04/15 05:13:35;;;;;;;;;;;10.30;99.90;;;;;;5256343;27;19931;-80
2024/04/15 05:16:04;;;;;;;;;;;10.30;99.90;;;;;;5291934;27;19931;-80
2024/04/15 05:18:30;;;;;;;;;;;10.30;99.90;;;;;;5285506;27;20033;-80
2024/04/15 05:20:56;;;;;;;;;;;10.30;99.90;;;;;;5260007;27;20658;-80
2024/04/15 05:23:22;;;;;;;;;;;10.30;99.90;;;;;;5264014;27;20351;-80
2024/04/15 05:25:48;;;;;;;;;;;10.30;99.90;;;;;;5264901;27;20013;-80
2024/04/15 05:28:14;;;;;;;;;;;10.30;99.90;;;;;;5293842;27;19937;-80
2024/04/15 05:30:39;;;;;;;;;;;10.20;99.90;;;;;;5255799;27;20430;-80
2024/04/15 05:33:05;;;;;;;;;;;10.20;99.90;;;;;;5280937;27;19931;-80
2024/04/15 05:35:31;;;;;;;;;;;10.20;99.90;;;;;;5281014;27;19931;-81
2024/04/15 05:37:56;;;;;;;;;;;10.20;99.90;;;;;;5316209;27;19939;-80
2024/04/15 05:40:22;;;;;;;;;;;10.20;99.90;;;;;;5288170;27;19997;-81
2024/04/15 05:42:48;;;;;;;;;;;10.20;99.90;;;;;;5255271;27;19942;-81
2024/04/15 05:45:13;;;;;;;;;;;10.20;99.90;;;;;;5257086;27;19931;-80
2024/04/15 05:47:43;;;;;;;;;;;10.20;99.90;;;;;;5257276;27;19959;-80
2024/04/15 05:50:09;;;;;;;;;;;10.30;99.90;;;;;;5293496;27;20023;-80
2024/04/15 05:52:35;;;;;;;;;;;10.20;99.90;;;;;;5287534;27;19931;-80
2024/04/15 05:55:00;;;;;;;;;;;10.20;99.90;;;;;;5283105;27;19931;-80
2024/04/15 05:57:26;;;;;;;;;;;10.20;99.90;;;;;;5308135;27;19939;-80
2024/04/15 05:59:52;;;;;;;;;;;10.20;99.90;;;;;;5283535;27;20262;-80
2024/04/15 06:02:18;;;;;;;;;;;10.20;99.90;;;;;;5346200;26;19930;-80
2024/04/15 06:04:43;;;;;;;;;;;10.20;99.90;;;;;;5320792;27;19923;-80
2024/04/15 06:07:09;;;;;;;;;;;10.20;99.90;;;;;;5271872;27;19940;-81
2024/04/15 06:09:36;;;;;;;;;;;10.30;99.90;;;;;;5322879;27;19930;-81
2024/04/15 06:12:02;;;;;;;;;;;10.30;99.90;;;;;;5328367;26;20007;-80
2024/04/15 06:14:27;;;;;;;;;;;10.30;99.90;;;;;;5315942;27;19930;-80
2024/04/15 06:16:53;;;;;;;;;;;10.30;99.90;;;;;;5318672;26;19942;-80
2024/04/15 06:19:19;;;;;;;;;;;10.30;99.90;;;;;;5320597;26;19942;-81
2024/04/15 06:21:44;;;;;;;;;;;10.30;99.90;;;;;;5262519;27;19937;-80
2024/04/15 06:24:10;;;;;;;;;;;10.20;99.90;;;;;;5315441;27;20368;-80
2024/04/15 06:26:39;;;;;;;;;;;10.30;99.90;;;;;;5305285;26;19930;-80
2024/04/15 06:29:05;;;;;;;;;;;10.20;99.90;;;;;;5269350;26;19937;-80
2024/04/15 06:31:32;;;;;;;;;;;10.30;99.90;;;;;;5344098;26;19943;-80
2024/04/15 06:34:00;;;;;;;;;;;10.30;99.90;;;;;;5298639;26;19938;-80
2024/04/15 06:36:29;;;;;;;;;;;10.30;99.90;;;;;;5278138;27;19947;-80
2024/04/15 06:38:54;;;;;;;;;;;10.30;99.90;;;;;;5276915;27;19937;-80
2024/04/15 06:41:20;;;;;;;;;;;10.30;99.90;;;;;;5314229;27;19957;-80
2024/04/15 06:43:46;;;;;;;;;;;10.30;99.90;;;;;;5307282;26;19938;-80
2024/04/15 06:46:11;;;;;;;;;;;10.40;99.90;;;;;;5319936;26;19942;-80
2024/04/15 06:48:39;;;;;;;;;;;10.40;99.90;;;;;;5319523;26;19937;-80
2024/04/15 06:51:04;;;;;;;;;;;10.50;99.90;;;;;;5320212;26;20002;-80
2024/04/15 06:53:32;;;;;;;;;;;10.50;99.90;;;;;;5330177;26;20348;-80
2024/04/15 06:55:58;;;;;;;;;;;10.60;99.90;;;;;;5292717;27;19930;-80
2024/04/15 06:58:23;;;;;;;;;;;10.80;99.90;;;;;;5288638;27;19931;-80
2024/04/15 07:00:49;;;;;;;;;;;10.80;99.90;;;;;;5289881;26;19930;-80
2024/04/15 07:03:14;;;;;;;;;;;10.80;99.90;;;;;;5302148;26;20000;-80
2024/04/15 07:05:40;;;;;;;;;;;10.80;99.90;;;;;;5352190;26;20446;-80
2024/04/15 07:08:06;;;;;;;;;;;10.80;99.90;;;;;;5347005;26;19930;-80
2024/04/15 07:10:32;;;;;;;;;;;10.70;99.90;;;;;;5319655;26;19930;-80
2024/04/15 07:13:02;;;;;;;;;;;10.70;99.90;;;;;;5324303;26;19936;-80
2024/04/15 07:15:27;;;;;;;;;;;10.70;99.90;;;;;;5354393;26;19966;-80
2024/04/15 07:17:53;;;;;;;;;;;10.70;99.90;;;;;;5323442;26;19933;-80
2024/04/15 07:20:19;;;;;;;;;;;10.70;99.90;;;;;;5321013;26;19935;-80
2024/04/15 07:22:44;;;;;;;;;;;10.70;99.90;;;;;;5319928;26;19937;-80
2024/04/15 07:25:10;;;;;;;;;;;10.70;99.90;;;;;;5347684;26;19942;-80
2024/04/15 07:27:39;;;;;;;;;;;10.70;99.90;;;;;;5318356;26;19930;-80
2024/04/15 07:30:05;;;;;;;;;;;10.70;99.90;;;;;;5290498;26;19940;-80
2024/04/15 07:32:31;;;;;;;;;;;10.80;99.90;;;;;;5269133;26;19938;-80
2024/04/15 07:34:57;;;;;;;;;;;10.90;99.90;;;;;;5321193;26;19937;-80
2024/04/15 07:37:23;;;;;;;;;;;10.90;99.90;;;;;;5288329;26;20581;-80
2024/04/15 07:39:49;;;;;;;;;;;10.90;99.90;;;;;;5359165;26;19953;-80
2024/04/15 07:42:14;;;;;;;;;;;10.90;99.90;;;;;;5357176;26;19999;-80
2024/04/15 07:44:40;;;;;;;;;;;10.90;99.90;;;;;;5347110;26;20359;-80
2024/04/15 07:47:06;;;;;;;;;;;10.90;99.90;;;;;;5307490;26;20318;-79
2024/04/15 07:49:33;;;;;;;;;;;11.00;99.90;;;;;;5294488;26;19930;-80
2024/04/15 07:51:58;;;;;;;;;;;10.90;99.90;;;;;;5343849;26;19930;-79
2024/04/15 07:54:24;;;;;;;;;;;10.90;99.90;;;;;;5298528;26;20275;-79
2024/04/15 07:56:50;;;;;;;;;;;10.90;99.90;;;;;;5337840;26;19961;-79
2024/04/15 07:59:16;;;;;;;;;;;10.90;99.90;;;;;;5335209;26;19930;-79
2024/04/15 08:01:42;;;;;;;;;;;10.80;99.90;;;;;;5262386;26;19938;-79
2024/04/15 08:04:08;;;;;;;;;;;10.90;99.90;;;;;;5289670;26;19973;-79
2024/04/15 08:06:33;;;;;;;;;;;11.00;99.90;;;;;;5295297;27;19946;-79
2024/04/15 08:08:59;;;;;;;;;;;10.90;99.90;;;;;;5257457;27;19938;-79
2024/04/15 08:11:24;;;;;;;;;;;10.90;99.90;;;;;;5294276;27;19934;-79
2024/04/15 08:13:51;;;;;;;;;;;10.90;99.90;;;;;;5307550;26;19934;-79
2024/04/15 08:16:17;;;;;;;;;;;10.90;99.90;;;;;;5288441;26;19993;-79
2024/04/15 08:18:46;;;;;;;;;;;10.80;99.90;;;;;;5307720;27;20559;-79
2024/04/15 08:21:13;;;;;;;;;;;10.80;99.90;;;;;;5307752;27;19931;-79
2024/04/15 08:23:38;;;;;;;;;;;10.70;99.90;;;;;;5254051;27;19937;-79
2024/04/15 08:26:06;;;;;;;;;;;10.60;99.90;;;;;;5283197;27;19931;-79
2024/04/15 08:28:32;;;;;;;;;;;10.60;99.90;;;;;;5314139;27;20548;-80
2024/04/15 08:30:58;;;;;;;;;;;10.60;99.90;;;;;;5258011;26;20367;-79
2024/04/15 08:33:24;;;;;;;;;;;10.70;99.90;;;;;;5318512;26;19937;-80
2024/04/15 08:35:50;;;;;;;;;;;10.60;99.90;;;;;;5280676;27;19937;-79
2024/04/15 08:38:16;;;;;;;;;;;10.70;99.90;;;;;;5305550;26;19937;-80
2024/04/15 08:40:48;;;;;;;;;;;10.70;99.90;;;;;;5324021;26;19934;-80
2024/04/15 08:43:14;;;;;;;;;;;10.90;99.90;;;;;;5316420;26;19934;-81
2024/04/15 08:45:42;;;;;;;;;;;10.90;99.90;;;;;;5316273;26;19933;-83
2024/04/15 08:48:10;;;;;;;;;;;10.90;99.90;;;;;;5337996;26;19946;-80
2024/04/15 08:50:36;;;;;;;;;;;11.00;99.90;;;;;;5272597;26;19941;-80
2024/04/15 08:53:01;;;;;;;;;;;11.10;99.90;;;;;;5304675;26;19941;-80
2024/04/15 08:55:27;;;;;;;;;;;11.30;99.90;;;;;;5340658;26;19930;-80
2024/04/15 08:57:53;;;;;;;;;;;11.40;99.90;;;;;;5342019;26;19947;-80
2024/04/15 09:00:20;;;;;;;;;;;11.50;99.90;;;;;;5328353;26;19922;-80
2024/04/15 09:02:46;;;;;;;;;;;11.50;99.90;;;;;;5339854;26;19982;-80
2024/04/15 09:05:12;;;;;;;;;;;11.60;99.90;;;;;;5310627;26;19938;-80
2024/04/15 09:07:39;;;;;;;;;;;11.50;99.90;;;;;;5334226;26;19930;-80
2024/04/15 09:10:05;;;;;;;;;;;11.60;99.90;;;;;;5339807;26;19930;-80
2024/04/15 09:12:38;;;;;;;;;;;11.50;99.90;;;;;;5281024;26;19997;-80
2024/04/15 09:15:05;;;;;;;;;;;11.60;99.90;;;;;;5272558;26;19931;-80
2024/04/15 09:17:31;;;;;;;;;;;11.60;99.90;;;;;;5302160;26;20651;-80
2024/04/15 09:19:57;;;;;;;;;;;11.70;99.90;;;;;;5305283;26;19930;-80
2024/04/15 09:22:29;;;;;;;;;;;11.70;99.90;;;;;;5328314;26;19934;-80
2024/04/15 09:24:55;;;;;;;;;;;11.70;99.90;;;;;;5305913;26;19922;-80
2024/04/15 09:27:24;;;;;;;;;;;11.70;99.90;;;;;;5299710;26;19923;-80
2024/04/15 09:29:50;;;;;;;;;;;11.70;99.90;;;;;;5276226;26;19937;-80
2024/04/15 09:32:16;;;;;;;;;;;11.70;99.90;;;;;;5330979;26;19936;-80
2024/04/15 09:34:42;;;;;;;;;;;11.70;99.90;;;;;;5277654;26;19938;-80
2024/04/15 09:37:08;;;;;;;;;;;11.60;99.90;;;;;;5282593;26;19936;-80
2024/04/15 09:39:36;;;;;;;;;;;11.70;99.90;;;;;;5332569;26;19922;-80
2024/04/15 09:42:02;;;;;;;;;;;11.80;99.90;;;;;;5369267;26;19934;-80
2024/04/15 09:44:29;;;;;;;;;;;11.70;99.90;;;;;;5343255;26;19976;-80
2024/04/15 09:47:03;;;;;;;;;;;11.80;99.90;;;;;;5343939;26;19973;-80
2024/04/15 09:49:46;;;;;;;;;;;11.70;99.90;;;;;;5372305;26;19938;-81
2024/04/15 09:52:30;;;;;;;;;;;11.60;99.90;;;;;;5339743;26;19937;-80
2024/04/15 09:55:08;;;;;;;;;;;11.60;99.90;;;;;;5310339;26;19922;-80
2024/04/15 09:57:35;;;;;;;;;;;11.60;99.90;;;;;;5341563;26;19936;-80
2024/04/15 10:00:01;;;;;;;;;;;11.50;99.90;;;;;;5314515;26;19922;-81
2024/04/15 10:02:35;;;;;;;;;;;11.60;99.90;;;;;;5305271;26;19930;-81
2024/04/15 10:05:08;;;;;;;;;;;11.60;99.90;;;;;;5299604;26;19934;-80
2024/04/15 10:07:33;;;;;;;;;;;11.70;99.90;;;;;;5329352;26;19930;-80
2024/04/15 10:10:00;;;;;;;;;;;11.70;99.90;;;;;;5328100;26;19937;-80
2024/04/15 10:12:26;;;;;;;;;;;11.80;99.90;;;;;;5292058;27;19930;-80
2024/04/15 10:14:52;;;;;;;;;;;11.90;99.90;;;;;;5262797;27;19930;-80
2024/04/15 10:17:18;;;;;;;;;;;11.90;99.90;;;;;;5270202;26;19937;-80
2024/04/15 10:22:24;;;;;;;;;;;12.00;99.90;;;;;;5469782;21;19929;-79
2024/04/15 10:24:50;;;;;;;;;;;12.00;99.90;;;;;;5324948;26;19930;-80
2024/04/15 10:27:16;;;;;;;;;;;12.20;99.90;;;;;;5323943;26;19930;-79
2024/04/15 10:29:42;;;;;;;;;;;12.40;99.90;;;;;;5317743;26;20253;-80
2024/04/15 10:32:08;;;;;;;;;;;12.50;99.90;;;;;;5345049;26;20355;-80
2024/04/15 10:34:45;;;;;;;;;;;12.60;99.90;;;;;;5308072;26;19952;-79
2024/04/15 10:37:15;;;;;;;;;;;12.60;99.90;;;;;;5318566;26;19942;-80
2024/04/15 10:39:45;;;;;;;;;;;12.50;99.90;;;;;;5348365;26;20416;-79
2024/04/15 10:42:16;;;;;;;;;;;12.60;99.90;;;;;;5289403;26;20338;-79
2024/04/15 10:44:42;;;;;;;;;;;12.80;99.90;;;;;;5317697;26;20544;-80
2024/04/15 10:47:08;;;;;;;;;;;12.80;99.90;;;;;;5287996;26;19930;-80
2024/04/15 10:49:37;;;;;;;;;;;12.90;99.90;;;;;;5308139;26;19937;-80
2024/04/15 10:52:03;;;;;;;;;;;13.20;99.90;;;;;;5283148;27;19942;-79
2024/04/15 10:54:30;;;;;;;;;;;13.20;99.90;;;;;;5337774;26;19996;-79
2024/04/15 10:56:56;;;;;;;;;;;13.40;99.90;;;;;;5290227;26;19930;-80
2024/04/15 10:59:22;;;;;;;;;;;13.70;99.60;;;;;;5263476;26;19937;-80
2024/04/15 11:01:49;;;;;;;;;;;13.80;99.70;;;;;;5289605;26;19937;-80
2024/04/15 11:04:17;;;;;;;;;;;14.00;98.60;;;;;;5291335;26;19956;-79
2024/04/15 11:06:45;;;;;;;;;;;13.90;99.20;;;;;;5375560;26;19994;-80
2024/04/15 11:09:11;;;;;;;;;;;14.00;98.80;;;;;;5419177;26;19929;-80
2024/04/15 11:11:37;;;;;;;;;;;14.00;98.20;;;;;;5340810;26;19935;-80
2024/04/15 11:14:02;;;;;;;;;;;14.20;98.90;;;;;;5295289;26;19930;-80
2024/04/15 11:16:28;;;;;;;;;;;14.00;97.70;;;;;;5320804;26;19929;-80
2024/04/15 11:19:07;;;;;;;;;;;13.60;98.10;;;;;;5318159;26;19938;-80
2024/04/15 11:21:35;;;;;;;;;;;13.60;97.70;;;;;;5290831;26;19930;-80
2024/04/15 11:24:01;;;;;;;;;;;13.60;97.70;;;;;;5261516;26;19937;-79
2024/04/15 11:26:28;;;;;;;;;;;13.70;97.80;;;;;;5293328;26;19930;-78
2024/04/15 11:28:55;;;;;;;;;;;13.50;97.10;;;;;;5290332;26;19930;-81
2024/04/15 11:31:21;;;;;;;;;;;13.60;97.80;;;;;;5324541;26;20307;-80
2024/04/15 11:33:47;;;;;;;;;;;13.50;97.20;;;;;;5301696;26;20344;-81
2024/04/15 11:36:17;;;;;;;;;;;13.40;97.40;;;;;;5290069;26;19938;-81
2024/04/15 11:38:46;;;;;;;;;;;13.30;97.50;;;;;;5307164;26;20017;-80
2024/04/15 11:41:14;;;;;;;;;;;13.30;98.00;;;;;;5337530;26;19930;-81
2024/04/15 11:43:40;;;;;;;;;;;13.20;97.70;;;;;;5289705;26;20424;-80
2024/04/15 11:46:06;;;;;;;;;;;13.30;97.50;;;;;;5291689;26;19936;-80
2024/04/15 11:48:31;;;;;;;;;;;13.30;97.60;;;;;;5290222;26;19992;-80
2024/04/15 11:50:57;;;;;;;;;;;13.30;97.80;;;;;;5380397;26;19941;-79
2024/04/15 11:53:24;;;;;;;;;;;13.50;97.90;;;;;;5351972;26;19936;-79
2024/04/15 11:55:52;;;;;;;;;;;13.60;97.80;;;;;;5352016;26;19937;-79
2024/04/15 11:58:18;;;;;;;;;;;13.70;97.10;;;;;;5346013;26;19966;-80
2024/04/15 12:00:43;;;;;;;;;;;13.60;97.30;;;;;;5317588;26;19996;-80
2024/04/15 12:03:09;;;;;;;;;;;13.80;97.40;;;;;;5319954;26;19981;-79
2024/04/15 12:05:35;;;;;;;;;;;14.00;97.10;;;;;;5321387;26;19930;-80
2024/04/15 12:08:00;;;;;;;;;;;13.90;97.10;;;;;;5354204;26;20268;-81
2024/04/15 12:10:26;;;;;;;;;;;13.80;97.60;;;;;;5306672;26;19930;-80
2024/04/15 12:12:52;;;;;;;;;;;13.70;97.50;;;;;;5264205;26;20386;-80
2024/04/15 12:15:18;;;;;;;;;;;13.80;97.50;;;;;;5344754;26;19930;-80
2024/04/15 12:17:44;;;;;;;;;;;13.80;97.40;;;;;;5294427;26;20249;-81
2024/04/15 12:20:10;;;;;;;;;;;13.70;97.20;;;;;;5264286;26;19997;-80
2024/04/15 12:22:35;;;;;;;;;;;13.70;97.40;;;;;;5292089;26;19954;-80
2024/04/15 12:25:01;;;;;;;;;;;13.80;97.20;;;;;;5353908;26;20400;-80
2024/04/15 12:27:27;;;;;;;;;;;13.90;97.80;;;;;;5293249;26;19942;-81
2024/04/15 12:29:52;;;;;;;;;;;13.90;97.20;;;;;;5282236;26;19930;-81
2024/04/15 12:32:19;;;;;;;;;;;14.00;97.00;;;;;;5346495;26;19930;-81
2024/04/15 12:34:45;;;;;;;;;;;14.00;97.20;;;;;;5291833;26;19938;-81
2024/04/15 12:37:11;;;;;;;;;;;14.00;96.30;;;;;;5299997;26;19999;-80
2024/04/15 12:39:37;;;;;;;;;;;14.10;95.40;;;;;;5306249;26;19938;-80
2024/04/15 12:42:05;;;;;;;;;;;14.00;95.40;;;;;;5320711;26;19930;-80
2024/04/15 12:44:31;;;;;;;;;;;14.20;96.00;;;;;;5323673;26;19937;-80
2024/04/15 12:47:00;;;;;;;;;;;14.00;94.40;;;;;;5372477;26;20014;-81
2024/04/15 12:49:25;;;;;;;;;;;14.10;95.30;;;;;;5300941;26;19941;-80
2024/04/15 12:51:51;;;;;;;;;;;14.00;94.50;;;;;;5307335;26;20261;-81
2024/04/15 12:54:17;;;;;;;;;;;14.20;94.60;;;;;;5264189;26;19930;-80
2024/04/15 12:56:42;;;;;;;;;;;14.20;93.80;;;;;;5319597;26;20364;-80
2024/04/15 12:59:08;;;;;;;;;;;14.30;93.70;;;;;;5364112;26;19936;-80
2024/04/15 13:01:33;;;;;;;;;;;14.20;93.70;;;;;;5320852;26;19937;-80
2024/04/15 13:03:59;;;;;;;;;;;14.20;93.40;;;;;;5292602;26;19930;-80
2024/04/15 13:06:25;;;;;;;;;;;14.20;93.70;;;;;;5322105;26;20752;-81
2024/04/15 13:08:51;;;;;;;;;;;14.20;94.00;;;;;;5340965;26;20255;-81
2024/04/15 13:11:16;;;;;;;;;;;14.30;93.70;;;;;;5310588;26;20273;-81
2024/04/15 13:13:42;;;;;;;;;;;14.40;93.50;;;;;;5325191;26;20309;-80
2024/04/15 13:16:08;;;;;;;;;;;14.40;92.20;;;;;;5325628;26;19936;-80
2024/04/15 13:18:33;;;;;;;;;;;14.30;92.10;;;;;;5326213;26;19929;-81
2024/04/15 13:20:59;;;;;;;;;;;14.40;92.40;;;;;;5325733;26;19951;-80
2024/04/15 13:23:25;;;;;;;;;;;14.60;92.60;;;;;;5355029;26;19936;-80
2024/04/15 13:25:52;;;;;;;;;;;14.90;91.60;;;;;;5297394;26;20325;-80
2024/04/15 13:28:18;;;;;;;;;;;15.00;90.40;;;;;;5319333;26;19997;-81
2024/04/15 13:30:43;;;;;;;;;;;15.10;91.10;;;;;;5292757;26;19939;-80
2024/04/15 13:33:10;;;;;;;;;;;15.10;89.80;;;;;;5339249;26;19955;-81
2024/04/15 13:35:35;;;;;;;;;;;15.10;90.10;;;;;;5326134;26;19929;-80
2024/04/15 13:38:02;;;;;;;;;;;15.00;88.10;;;;;;5326685;26;19930;-81
2024/04/15 13:40:30;;;;;;;;;;;15.10;88.50;;;;;;5354581;26;19929;-80
2024/04/15 13:42:55;;;;;;;;;;;15.00;89.10;;;;;;5348593;26;20243;-80
2024/04/15 13:45:21;;;;;;;;;;;15.20;90.50;;;;;;5279293;26;19996;-80
2024/04/15 13:47:56;;;;;;;;;;;15.40;88.70;;;;;;5328546;26;19930;-80
2024/04/15 13:50:21;;;;;;;;;;;15.40;89.60;;;;;;5265303;26;19942;-80
2024/04/15 13:52:48;;;;;;;;;;;15.40;88.60;;;;;;5307217;26;19954;-81
2024/04/15 13:55:14;;;;;;;;;;;15.40;88.60;;;;;;5263426;26;19930;-81
2024/04/15 13:57:40;;;;;;;;;;;15.50;90.10;;;;;;5303039;26;19930;-80
2024/04/15 14:00:06;;;;;;;;;;;15.50;89.70;;;;;;5291751;26;20362;-79
2024/04/15 14:02:32;;;;;;;;;;;15.50;89.60;;;;;;5264603;26;20621;-79
2024/04/15 14:04:59;;;;;;;;;;;15.70;89.30;;;;;;5264622;26;19934;-80
2024/04/15 14:07:24;;;;;;;;;;;15.90;89.60;;;;;;5367110;26;19936;-80
2024/04/15 14:09:52;;;;;;;;;;;16.20;88.70;;;;;;5326609;26;20349;-79
2024/04/15 14:12:18;;;;;;;;;;;16.40;86.90;;;;;;5325518;26;19929;-80
2024/04/15 14:14:44;;;;;;;;;;;16.20;87.90;;;;;;5341085;26;19930;-80